PDT,Max TemperatureF,Mean TemperatureF,Min TemperatureF,Max Dew PointF,MeanDew PointF,Min DewpointF,Max Humidity, Mean Humidity, Min Humidity, Max Sea Level PressureIn, Mean Sea Level PressureIn, Min Sea Level PressureIn, Max VisibilityMiles, Mean VisibilityMiles, Min VisibilityMiles, Max Wind SpeedMPH, Mean Wind SpeedMPH, Max Gust SpeedMPH,PrecipitationIn, CloudCover, Events, WindDirDegrees
2013-4-1,66,57,47,55,52,45,96,80,63,30.16,30.10,30.05,10,8,2,16,5,18,0.27,6,Rain,239
2013-4-2,70,56,42,57,48,43,100,79,57,30.20,30.15,30.07,10,6,0,14,4,17,0.00,4,Fog,240
2013-4-3,76,60,43,57,48,43,100,71,41,30.15,30.10,29.96,10,4,0,16,5,18,0.00,4,Fog,220
2013-4-4,63,58,52,57,53,48,96,87,78,30.12,30.05,29.98,10,7,2,22,9,25,0.36,8,Rain,198
2013-4-5,65,59,53,54,52,48,93,78,63,30.18,30.13,30.09,10,10,4,18,8,22,T,6,Rain,267
2013-4-6,66,58,50,56,52,49,93,81,68,30.19,30.15,30.10,10,10,9,18,8,23,0.00,6,,237
2013-4-7,66,58,49,54,49,45,89,73,56,30.16,30.01,29.78,10,10,3,29,11,36,0.08,6,Rain,255
2013-4-8,70,57,43,46,37,20,83,49,15,30.01,29.90,29.77,10,10,10,29,13,37,0.00,0,,308
2013-4-9,77,60,43,44,34,29,77,48,18,30.09,30.05,30.01,10,10,10,24,11,30,0.00,0,,347
2013-4-10,82,63,43,56,49,40,82,61,39,30.16,30.06,29.99,10,10,10,21,7,26,0.00,0,,235
2013-4-11,72,59,45,53,48,44,93,70,47,30.01,29.92,29.81,10,10,10,20,8,23,0.00,0,,220
2013-4-12,73,56,39,54,47,39,96,70,44,29.91,29.86,29.80,10,9,1,17,6,46,0.00,0,,223
2013-4-13,71,56,41,52,45,40,96,72,47,29.88,29.84,29.78,10,10,10,18,7,20,0.00,0,,244
2013-4-14,71,55,39,46,41,35,86,62,37,29.91,29.85,29.79,10,10,10,31,12,37,0.00,0,,258
2013-4-15,63,53,42,45,40,35,93,65,36,29.93,29.86,29.81,10,10,10,31,14,39,0.00,1,,273
2013-4-16,69,52,34,40,30,22,82,49,16,30.15,30.04,29.95,10,10,10,21,10,28,0.00,0,,332
2013-4-17,72,58,43,38,28,22,71,43,15,30.25,30.19,30.16,10,10,10,24,12,29,0.00,0,,360
2013-4-18,76,59,41,46,38,32,80,51,22,30.24,30.20,30.16,10,10,10,15,6,30,0.00,0,,266
2013-4-19,78,59,40,56,47,39,96,67,38,30.22,30.14,30.02,10,9,2,15,6,20,0.00,0,,241
2013-4-20,80,61,42,50,46,41,92,62,32,30.08,30.07,30.06,10,10,10,16,6,24,0.00,0,,207
2013-4-21,83,62,40,54,48,39,100,64,28,30.02,29.95,29.90,10,10,7,14,4,17,0.00,0,,196
2013-4-22,87,66,44,57,50,43,93,58,22,29.94,29.89,29.82,10,10,8,16,6,21,0.00,0,,192
2013-4-23,84,65,46,49,33,19,86,49,12,29.91,29.87,29.82,10,10,10,26,11,32,0.00,0,,310
2013-4-24,67,54,41,52,47,39,100,79,58,29.93,29.87,29.83,10,7,0,22,9,25,0.00,3,Fog,236
2013-4-25,68,57,46,51,48,44,93,75,56,30.11,30.03,29.94,10,10,10,18,12,58,0.00,4,,272
2013-4-26,72,61,50,54,48,46,89,69,49,30.24,30.17,30.11,10,10,8,14,8,17,0.00,3,,254
2013-4-27,72,60,47,55,49,44,93,73,53,30.24,30.16,30.05,10,9,5,15,7,18,0.00,4,,245
2013-4-28,82,65,47,58,51,46,93,66,39,30.08,29.96,29.85,10,10,8,12,4,14,0.00,3,,211
2013-4-29,87,67,47,58,53,45,93,64,34,29.88,29.81,29.73,10,10,9,15,6,17,0.00,0,,190
2013-4-30,81,65,48,51,45,15,86,60,33,29.83,29.79,29.76,10,10,10,16,6,20,0.00,0,,187